Time;durP1;ratioP1;P1;durP2;ratioP2;P2;SDS_P1;SDS_P2;PMS_P1;PMS_P2;Temp;Humidity;BMP_temperature;BMP_pressure;BME280_temperature;BME280_humidity;BME280_pressure;Samples;Min_cycle;Max_cycle;Signal;HPM_P1;HPM_P2
2021/04/10 00:00:43;;;;;;;11.13;9.70;;;10.40;99.90;;;;;;5114332;28;20263;-77
2021/04/10 00:03:10;;;;;;;12.90;9.23;;;10.50;99.90;;;;;;5113261;28;20169;-75
2021/04/10 00:05:36;;;;;;;12.48;10.00;;;10.60;99.90;;;;;;5113098;28;20521;-75
2021/04/10 00:08:02;;;;;;;10.93;9.90;;;10.70;99.90;;;;;;5112159;28;20219;-74
2021/04/10 00:10:30;;;;;;;11.57;9.73;;;10.70;99.90;;;;;;5112072;28;20578;-75
2021/04/10 00:12:57;;;;;;;11.05;9.77;;;10.70;99.90;;;;;;5113154;28;20170;-75
2021/04/10 00:15:24;;;;;;;10.68;9.50;;;10.70;99.90;;;;;;5113329;28;20173;-75
2021/04/10 00:17:50;;;;;;;12.73;9.07;;;10.70;99.90;;;;;;5113171;28;20232;-74
2021/04/10 00:20:18;;;;;;;10.52;9.45;;;10.80;99.90;;;;;;5113310;28;20621;-75
2021/04/10 00:22:44;;;;;;;11.65;9.68;;;10.60;99.90;;;;;;5113967;28;20531;-76
2021/04/10 00:25:12;;;;;;;11.82;10.57;;;10.70;99.90;;;;;;5115600;28;20541;-75
2021/04/10 00:27:38;;;;;;;19.33;10.95;;;10.80;99.90;;;;;;5115375;28;20617;-74
2021/04/10 00:30:06;;;;;;;15.63;10.35;;;11.00;99.90;;;;;;5117003;28;20257;-75
2021/04/10 00:32:32;;;;;;;16.33;10.73;;;11.10;99.90;;;;;;5116196;28;20335;-75
2021/04/10 00:34:57;;;;;;;13.68;10.30;;;11.20;99.90;;;;;;5116558;28;20244;-75
2021/04/10 00:37:23;;;;;;;10.73;9.70;;;11.20;99.90;;;;;;5098353;28;20212;-75
2021/04/10 00:39:48;;;;;;;13.25;10.77;;;11.30;99.90;;;;;;5115557;28;20539;-75
2021/04/10 00:42:14;;;;;;;11.90;9.60;;;11.30;99.90;;;;;;5116997;28;20605;-75
2021/04/10 00:44:40;;;;;;;11.07;10.05;;;11.30;99.90;;;;;;5114927;28;20165;-75
2021/04/10 00:47:06;;;;;;;11.52;10.02;;;11.30;99.90;;;;;;5115274;28;20181;-75
2021/04/10 00:49:31;;;;;;;17.48;12.23;;;11.20;99.90;;;;;;5115076;28;20613;-75
2021/04/10 00:51:57;;;;;;;11.80;10.48;;;11.20;99.90;;;;;;5116507;28;20242;-76
2021/04/10 00:54:23;;;;;;;11.48;10.27;;;11.10;99.90;;;;;;5115090;28;20174;-76
2021/04/10 00:56:49;;;;;;;11.23;10.07;;;11.10;99.90;;;;;;5114565;28;20205;-75
2021/04/10 00:59:15;;;;;;;11.50;10.20;;;11.00;99.90;;;;;;5116708;28;20164;-75
2021/04/10 01:01:40;;;;;;;16.50;10.35;;;10.60;99.90;;;;;;5115975;28;20174;-75
2021/04/10 01:04:06;;;;;;;12.40;11.10;;;10.40;99.90;;;;;;5116518;28;20521;-75
2021/04/10 01:06:32;;;;;;;11.10;9.88;;;10.40;99.90;;;;;;5116024;28;20170;-76
2021/04/10 01:08:58;;;;;;;12.57;11.32;;;10.60;99.90;;;;;;5116123;28;20195;-76
2021/04/10 01:11:27;;;;;;;12.05;10.35;;;10.60;99.90;;;;;;5114873;28;20252;-75
2021/04/10 01:14:02;;;;;;;15.30;11.07;;;10.60;99.90;;;;;;5116036;28;20169;-75
2021/04/10 01:17:03;;;;;;;11.57;10.48;;;10.70;99.90;;;;;;5115889;28;20644;-76
2021/04/10 01:19:50;;;;;;;13.25;11.13;;;10.60;99.90;;;;;;5089737;28;20199;-75
2021/04/10 01:22:52;;;;;;;12.23;10.70;;;10.60;99.90;;;;;;5114362;28;20166;-75
2021/04/10 01:25:33;;;;;;;13.25;10.40;;;10.60;99.90;;;;;;5115615;28;20244;-75
2021/04/10 01:28:01;;;;;;;13.07;11.77;;;10.60;99.90;;;;;;5114668;28;20169;-75
2021/04/10 01:30:32;;;;;;;12.68;11.32;;;10.80;99.90;;;;;;5115643;28;20189;-75
2021/04/10 01:33:11;;;;;;;12.20;10.90;;;10.80;99.90;;;;;;5114971;28;20195;-75
2021/04/10 01:35:51;;;;;;;13.93;10.85;;;10.80;99.90;;;;;;5115304;28;20183;-75
2021/04/10 01:38:19;;;;;;;15.15;11.77;;;10.80;99.90;;;;;;5115680;28;20593;-75
2021/04/10 01:40:49;;;;;;;15.55;11.70;;;10.80;99.90;;;;;;5115380;28;20641;-75
2021/04/10 01:43:16;;;;;;;20.83;12.00;;;10.80;99.90;;;;;;5115477;28;20166;-75
2021/04/10 01:45:43;;;;;;;15.88;11.85;;;10.80;99.90;;;;;;5115211;28;20177;-75
2021/04/10 01:48:11;;;;;;;17.13;12.05;;;10.80;99.90;;;;;;5114914;28;20175;-75
2021/04/10 01:50:38;;;;;;;18.85;12.25;;;10.80;99.90;;;;;;5114117;28;20599;-75
2021/04/10 01:53:06;;;;;;;15.15;12.48;;;10.80;99.90;;;;;;5115077;28;20176;-75
2021/04/10 01:55:35;;;;;;;15.32;12.65;;;10.70;99.90;;;;;;5113830;28;20305;-75
2021/04/10 01:58:02;;;;;;;13.68;12.27;;;10.80;99.90;;;;;;5115214;28;20173;-76
2021/04/10 02:00:31;;;;;;;17.13;12.50;;;10.80;99.90;;;;;;5114784;28;20184;-75
2021/04/10 02:02:57;;;;;;;14.25;12.20;;;10.70;99.90;;;;;;5114856;28;20245;-75
2021/04/10 02:05:23;;;;;;;19.05;12.75;;;10.70;99.90;;;;;;5096558;28;20169;-75
2021/04/10 02:07:50;;;;;;;16.38;12.50;;;10.50;99.90;;;;;;5115072;27;20523;-75
2021/04/10 02:10:23;;;;;;;18.17;12.50;;;10.50;99.90;;;;;;5113869;28;20261;-75
2021/04/10 02:12:50;;;;;;;13.45;11.93;;;10.50;99.90;;;;;;5114121;27;20532;-75
2021/04/10 02:15:16;;;;;;;19.40;12.80;;;10.30;99.90;;;;;;5114908;28;20195;-75
2021/04/10 02:17:42;;;;;;;19.73;12.43;;;10.30;99.90;;;;;;5114561;28;20205;-75
2021/04/10 02:20:12;;;;;;;18.77;13.00;;;10.30;99.90;;;;;;5114855;28;20235;-75
2021/04/10 02:22:44;;;;;;;16.17;12.55;;;10.40;99.90;;;;;;5114831;28;20168;-76
2021/04/10 02:25:11;;;;;;;16.00;13.25;;;10.50;99.90;;;;;;5113660;28;20150;-75
2021/04/10 02:27:37;;;;;;;16.02;11.50;;;10.60;99.90;;;;;;5114405;28;20169;-75
2021/04/10 02:30:05;;;;;;;16.55;12.15;;;10.60;99.90;;;;;;5092717;28;20180;-75
2021/04/10 02:32:38;;;;;;;16.52;12.25;;;10.70;99.90;;;;;;5093893;28;20650;-75
2021/04/10 02:35:10;;;;;;;15.27;11.88;;;10.70;99.90;;;;;;5113581;28;20165;-75
2021/04/10 02:37:37;;;;;;;13.20;11.88;;;10.80;99.90;;;;;;5114543;28;20181;-75
2021/04/10 02:40:07;;;;;;;12.68;10.65;;;10.80;99.90;;;;;;5114442;28;20200;-75
2021/04/10 02:42:37;;;;;;;14.52;12.50;;;10.90;99.90;;;;;;5113023;28;20197;-75
2021/04/10 02:45:04;;;;;;;16.08;12.77;;;11.00;99.90;;;;;;5114372;28;20165;-75
2021/04/10 02:47:32;;;;;;;14.88;12.77;;;11.00;99.90;;;;;;5112992;28;20169;-75
2021/04/10 02:50:01;;;;;;;15.13;13.63;;;11.10;99.90;;;;;;5114057;28;20179;-75
2021/04/10 02:52:44;;;;;;;19.45;13.30;;;11.10;99.90;;;;;;5114127;28;20173;-75
2021/04/10 02:55:13;;;;;;;15.13;12.55;;;11.00;99.90;;;;;;5112553;28;20189;-75
2021/04/10 02:57:41;;;;;;;18.05;13.55;;;11.00;99.90;;;;;;5113773;28;20705;-76
2021/04/10 03:00:08;;;;;;;16.25;13.07;;;10.90;99.90;;;;;;5095960;28;20173;-75
2021/04/10 03:02:38;;;;;;;14.02;12.05;;;10.70;99.90;;;;;;5113984;28;20173;-75
2021/04/10 03:05:05;;;;;;;23.70;12.75;;;10.40;99.90;;;;;;5112398;28;20176;-76
2021/04/10 03:07:31;;;;;;;22.00;13.88;;;10.20;99.90;;;;;;5113765;28;20166;-75
2021/04/10 03:09:57;;;;;;;21.63;13.13;;;10.20;99.90;;;;;;5112304;28;20184;-75
2021/04/10 03:12:27;;;;;;;25.08;14.25;;;10.20;99.90;;;;;;5114065;28;20491;-75
2021/04/10 03:14:53;;;;;;;22.60;14.85;;;10.10;99.90;;;;;;5113670;28;20169;-75
2021/04/10 03:17:25;;;;;;;31.30;14.57;;;10.00;99.90;;;;;;5112736;28;20208;-75
2021/04/10 03:19:51;;;;;;;17.60;14.45;;;9.90;99.90;;;;;;5113928;28;20172;-75
2021/04/10 03:22:17;;;;;;;27.45;15.10;;;9.60;99.90;;;;;;5113969;28;20617;-75
2021/04/10 03:24:44;;;;;;;20.10;13.77;;;9.40;99.90;;;;;;5112376;28;20184;-75
2021/04/10 03:27:13;;;;;;;22.58;14.40;;;9.30;99.90;;;;;;5113406;28;20569;-75
2021/04/10 03:29:39;;;;;;;30.80;16.50;;;9.00;99.90;;;;;;5112555;28;20169;-75
2021/04/10 03:32:09;;;;;;;22.98;15.93;;;8.90;99.90;;;;;;5095260;28;20181;-75
2021/04/10 03:34:35;;;;;;;24.02;16.77;;;8.80;99.90;;;;;;5113550;28;20195;-75
2021/04/10 03:37:02;;;;;;;27.15;17.50;;;8.80;99.90;;;;;;5112202;28;20242;-75
2021/04/10 03:39:29;;;;;;;30.45;17.98;;;9.00;99.90;;;;;;5112409;28;20246;-75
2021/04/10 03:41:55;;;;;;;35.30;18.20;;;9.10;99.90;;;;;;5112177;28;20173;-75
2021/04/10 03:44:22;;;;;;;32.47;17.80;;;9.20;99.90;;;;;;5112205;28;20179;-75
2021/04/10 03:46:47;;;;;;;27.52;18.95;;;9.10;99.90;;;;;;5112417;28;20176;-75
2021/04/10 03:49:13;;;;;;;43.40;19.92;;;8.80;99.90;;;;;;5112620;28;20173;-75
2021/04/10 03:51:38;;;;;;;35.00;19.02;;;8.70;99.90;;;;;;5095225;28;20176;-75
2021/04/10 03:54:04;;;;;;;32.90;20.38;;;8.60;99.90;;;;;;5112885;28;20273;-75
2021/04/10 03:56:31;;;;;;;33.22;20.10;;;8.60;99.90;;;;;;5112110;28;20235;-74
2021/04/10 03:58:56;;;;;;;37.65;21.55;;;8.50;99.90;;;;;;5116065;28;20334;-75
2021/04/10 04:01:22;;;;;;;34.05;21.95;;;8.50;99.90;;;;;;5117215;28;20633;-75
2021/04/10 04:03:48;;;;;;;41.95;23.33;;;8.40;99.90;;;;;;5115829;28;20182;-75
2021/04/10 04:06:13;;;;;;;39.60;22.48;;;8.50;99.90;;;;;;5116326;28;20177;-75
2021/04/10 04:08:39;;;;;;;37.83;23.35;;;8.40;99.90;;;;;;5099066;28;20181;-75
2021/04/10 04:11:05;;;;;;;39.55;23.17;;;8.30;99.90;;;;;;5115504;28;20177;-75
2021/04/10 04:13:31;;;;;;;38.88;23.02;;;8.20;99.90;;;;;;5116940;28;20171;-75
2021/04/10 04:15:57;;;;;;;32.42;23.10;;;8.30;99.90;;;;;;5115871;28;20201;-75
2021/04/10 04:18:22;;;;;;;39.65;24.40;;;8.20;99.90;;;;;;5115909;28;20162;-75
2021/04/10 04:20:48;;;;;;;39.03;23.63;;;8.20;99.90;;;;;;5116450;28;20173;-75
2021/04/10 04:23:13;;;;;;;45.80;23.08;;;8.30;99.90;;;;;;5117077;28;20170;-75
2021/04/10 04:25:39;;;;;;;38.47;23.83;;;8.40;99.90;;;;;;5116767;28;20167;-75
2021/04/10 04:28:05;;;;;;;38.15;23.45;;;8.30;99.90;;;;;;5117036;28;20165;-76
2021/04/10 04:30:31;;;;;;;35.88;24.63;;;8.30;99.90;;;;;;5116351;28;20153;-75
2021/04/10 04:32:56;;;;;;;43.35;24.45;;;8.20;99.90;;;;;;5116724;28;20188;-75
2021/04/10 04:35:22;;;;;;;45.05;24.40;;;8.20;99.90;;;;;;5115417;28;20177;-75
2021/04/10 04:37:48;;;;;;;38.53;23.85;;;8.20;99.90;;;;;;5115870;28;20208;-75
2021/04/10 04:40:14;;;;;;;38.50;23.67;;;8.30;99.90;;;;;;5115793;28;20206;-75
2021/04/10 04:42:40;;;;;;;36.60;23.80;;;8.30;99.90;;;;;;5115130;28;20166;-75
2021/04/10 04:45:06;;;;;;;43.90;24.95;;;8.20;99.90;;;;;;5117028;28;20170;-76
2021/04/10 04:47:32;;;;;;;44.17;25.65;;;8.40;99.90;;;;;;5114820;28;20230;-75
2021/04/10 04:49:58;;;;;;;41.10;26.27;;;8.60;99.90;;;;;;5116314;28;20177;-75
2021/04/10 04:52:24;;;;;;;52.97;27.60;;;8.50;99.90;;;;;;5115152;28;20173;-75
2021/04/10 04:54:50;;;;;;;38.30;25.02;;;8.40;99.90;;;;;;5116487;28;20176;-75
2021/04/10 04:57:16;;;;;;;45.08;27.10;;;8.40;99.90;;;;;;5114896;28;20221;-75
2021/04/10 04:59:41;;;;;;;43.90;26.45;;;8.20;99.90;;;;;;5115088;28;20272;-75
2021/04/10 05:02:07;;;;;;;45.83;28.38;;;8.30;99.90;;;;;;5115673;28;20185;-75
2021/04/10 05:04:33;;;;;;;43.22;26.13;;;8.30;99.90;;;;;;5116228;28;20173;-75
2021/04/10 05:06:58;;;;;;;45.92;27.05;;;8.50;99.90;;;;;;5114993;28;20212;-75
2021/04/10 05:09:24;;;;;;;42.83;28.10;;;8.50;99.90;;;;;;5113870;28;20201;-75
2021/04/10 05:11:50;;;;;;;41.03;27.02;;;8.50;99.90;;;;;;5116591;28;20184;-75
2021/04/10 05:14:16;;;;;;;42.40;26.77;;;8.50;99.90;;;;;;5115080;28;20200;-76
2021/04/10 05:16:41;;;;;;;45.17;26.77;;;8.50;99.90;;;;;;5114970;28;20694;-75
2021/04/10 05:19:07;;;;;;;45.05;27.67;;;8.40;99.90;;;;;;5115882;28;20532;-76
2021/04/10 05:21:33;;;;;;;42.88;25.00;;;8.40;99.90;;;;;;5115786;28;20174;-76
2021/04/10 05:23:58;;;;;;;43.95;27.33;;;8.30;99.90;;;;;;5115708;28;20181;-76
2021/04/10 05:26:24;;;;;;;47.88;27.58;;;8.30;99.90;;;;;;5114902;28;20182;-76
2021/04/10 05:28:50;;;;;;;41.08;27.42;;;8.20;99.90;;;;;;5115474;28;20610;-75
2021/04/10 05:31:15;;;;;;;48.88;27.65;;;8.20;99.90;;;;;;5097232;28;20625;-76
2021/04/10 05:33:43;;;;;;;46.65;29.15;;;8.40;99.90;;;;;;5114383;28;20185;-76
2021/04/10 05:36:09;;;;;;;42.10;26.63;;;8.50;99.90;;;;;;5097556;28;20202;-75
2021/04/10 05:38:35;;;;;;;43.17;27.80;;;8.50;99.90;;;;;;5114197;28;20252;-76
2021/04/10 05:41:00;;;;;;;45.88;27.77;;;8.50;99.90;;;;;;5114502;28;20178;-76
2021/04/10 05:43:26;;;;;;;45.25;27.27;;;8.40;99.90;;;;;;5115262;28;20158;-76
2021/04/10 05:45:51;;;;;;;53.00;28.35;;;8.30;99.90;;;;;;5115511;28;20177;-76
2021/04/10 05:48:17;;;;;;;48.72;27.55;;;8.40;99.90;;;;;;5113992;28;20188;-75
2021/04/10 05:50:43;;;;;;;44.28;28.10;;;8.30;99.90;;;;;;5114964;28;20162;-76
2021/04/10 05:53:08;;;;;;;40.13;27.70;;;8.20;99.90;;;;;;5115415;28;20166;-76
2021/04/10 05:55:34;;;;;;;46.97;28.52;;;8.20;99.90;;;;;;5133298;27;20227;-75
2021/04/10 05:58:00;;;;;;;49.50;28.02;;;8.20;99.90;;;;;;5135851;27;20207;-76
2021/04/10 06:00:25;;;;;;;43.88;28.05;;;8.20;99.90;;;;;;5135818;27;20255;-75
2021/04/10 06:02:52;;;;;;;45.22;27.77;;;8.10;99.90;;;;;;5116074;27;20173;-76
2021/04/10 06:05:19;;;;;;;53.83;28.52;;;8.10;99.90;;;;;;5095045;28;20170;-75
2021/04/10 06:07:46;;;;;;;42.20;27.20;;;8.10;99.90;;;;;;5093702;28;20245;-75
2021/04/10 06:10:16;;;;;;;44.25;27.55;;;8.10;99.90;;;;;;5094643;28;20166;-76
2021/04/10 06:12:42;;;;;;;48.95;28.73;;;8.20;99.90;;;;;;5093426;28;20166;-75
2021/04/10 06:15:17;;;;;;;45.75;28.85;;;8.20;99.90;;;;;;5112136;28;20294;-77
2021/04/10 06:17:43;;;;;;;47.67;27.67;;;8.20;99.90;;;;;;5114484;28;20275;-75
2021/04/10 06:20:09;;;;;;;44.42;26.88;;;8.40;99.90;;;;;;5118840;28;20166;-77
2021/04/10 06:22:35;;;;;;;44.28;27.67;;;8.40;99.90;;;;;;5122293;28;20234;-75
2021/04/10 06:25:01;;;;;;;47.92;28.42;;;8.40;99.90;;;;;;5120660;28;20192;-75
2021/04/10 06:27:27;;;;;;;49.85;28.23;;;8.40;99.90;;;;;;5116838;28;20173;-75
2021/04/10 06:29:52;;;;;;;48.60;29.58;;;8.30;99.90;;;;;;5114906;28;20234;-75
2021/04/10 06:32:18;;;;;;;42.88;26.92;;;8.30;99.90;;;;;;5113048;28;20630;-75
2021/04/10 06:34:44;;;;;;;47.95;29.33;;;8.40;99.90;;;;;;5113006;28;20197;-75
2021/04/10 06:37:09;;;;;;;68.63;37.65;;;8.50;99.90;;;;;;5113201;28;20208;-76
2021/04/10 06:39:35;;;;;;;85.68;47.88;;;8.40;99.90;;;;;;5114052;28;20201;-75
2021/04/10 06:42:00;;;;;;;92.93;51.22;;;8.30;99.90;;;;;;5114412;28;20665;-75
2021/04/10 06:44:28;;;;;;;106.28;57.63;;;8.30;99.90;;;;;;5112868;28;20233;-75
2021/04/10 06:46:57;;;;;;;111.15;59.75;;;8.20;99.90;;;;;;5114131;28;20181;-75
2021/04/10 06:49:26;;;;;;;99.03;53.88;;;8.20;99.90;;;;;;5113433;28;20169;-76
2021/04/10 06:51:52;;;;;;;99.20;54.85;;;8.20;99.90;;;;;;5114181;28;20212;-75
2021/04/10 06:54:21;;;;;;;98.40;52.40;;;8.10;99.90;;;;;;5112510;28;20172;-75
2021/04/10 06:57:15;;;;;;;88.65;51.88;;;8.10;99.90;;;;;;5114233;28;20780;-76
2021/04/10 06:59:51;;;;;;;94.43;53.20;;;8.10;99.90;;;;;;5111140;28;20539;-76
2021/04/10 07:02:17;;;;;;;100.53;53.78;;;8.00;99.90;;;;;;5114033;28;20177;-76
2021/04/10 07:04:44;;;;;;;88.00;53.15;;;8.10;99.90;;;;;;5113827;28;20209;-75
2021/04/10 07:07:10;;;;;;;94.95;50.97;;;8.10;99.90;;;;;;5112690;28;20177;-76
2021/04/10 07:09:37;;;;;;;98.75;53.35;;;8.00;99.90;;;;;;5114018;28;20488;-76
2021/04/10 07:12:07;;;;;;;98.43;53.20;;;8.00;99.90;;;;;;5114035;28;20166;-75
2021/04/10 07:14:33;;;;;;;109.95;55.63;;;8.10;99.90;;;;;;5113973;28;20713;-76
2021/04/10 07:16:58;;;;;;;106.40;56.22;;;8.20;99.90;;;;;;5113600;28;20292;-76
2021/04/10 07:19:29;;;;;;;99.68;56.60;;;8.20;99.90;;;;;;5112429;28;20197;-76
2021/04/10 07:22:12;;;;;;;96.65;55.08;;;8.20;99.90;;;;;;5112439;28;20165;-75
2021/04/10 07:24:47;;;;;;;109.45;56.58;;;8.40;99.90;;;;;;5113029;28;20613;-75
2021/04/10 07:27:23;;;;;;;95.85;54.05;;;8.50;99.90;;;;;;5112167;28;20164;-76
2021/04/10 07:29:54;;;;;;;103.63;55.05;;;8.60;99.90;;;;;;5113925;28;20177;-75
2021/04/10 07:32:25;;;;;;;106.45;55.40;;;8.60;99.90;;;;;;5115128;28;20234;-75
2021/04/10 07:34:51;;;;;;;87.88;47.03;;;8.80;99.90;;;;;;5116626;28;20184;-76
2021/04/10 07:37:36;;;;;;;85.50;47.72;;;8.80;99.90;;;;;;5116675;28;20532;-76
2021/04/10 07:40:26;;;;;;;77.43;44.55;;;8.80;99.90;;;;;;5117992;28;20164;-75
2021/04/10 07:42:52;;;;;;;66.68;39.15;;;8.60;99.90;;;;;;5116342;28;20164;-75
2021/04/10 07:45:50;;;;;;;70.50;39.70;;;8.40;99.90;;;;;;5116404;28;20209;-76
2021/04/10 07:48:18;;;;;;;84.63;43.28;;;8.50;99.90;;;;;;5083263;28;20180;-76
2021/04/10 07:50:44;;;;;;;70.30;40.92;;;8.80;99.90;;;;;;5117793;28;20172;-76
2021/04/10 07:53:25;;;;;;;71.45;38.33;;;9.00;99.90;;;;;;5117618;28;20176;-76
2021/04/10 07:55:52;;;;;;;64.03;36.90;;;9.20;99.90;;;;;;5116531;28;20201;-76
2021/04/10 07:58:21;;;;;;;58.38;35.05;;;9.30;99.90;;;;;;5116416;28;20198;-76
2021/04/10 08:00:48;;;;;;;57.33;34.53;;;9.40;99.90;;;;;;5116327;28;20575;-76
2021/04/10 08:03:32;;;;;;;56.95;32.22;;;9.40;99.90;;;;;;5115683;28;20622;-76
2021/04/10 08:06:19;;;;;;;49.92;31.17;;;9.40;99.90;;;;;;5115741;28;20651;-76
2021/04/10 08:08:52;;;;;;;58.42;33.65;;;9.30;99.90;;;;;;5117468;28;20161;-77
2021/04/10 08:11:38;;;;;;;57.72;31.42;;;9.50;99.90;;;;;;5117285;28;20157;-76
2021/04/10 08:14:14;;;;;;;49.80;29.83;;;9.60;99.90;;;;;;5115424;28;20188;-76
2021/04/10 08:16:47;;;;;;;58.40;29.25;;;9.60;99.90;;;;;;5117196;27;20288;-77
2021/04/10 08:19:14;;;;;;;44.83;29.08;;;9.50;99.90;;;;;;5115755;28;20162;-78
2021/04/10 08:21:52;;;;;;;48.00;29.40;;;9.30;99.90;;;;;;5116926;27;20632;-76
2021/04/10 08:24:21;;;;;;;48.15;29.33;;;9.50;99.90;;;;;;5129910;27;20162;-77
2021/04/10 08:26:51;;;;;;;48.95;28.67;;;9.80;99.90;;;;;;5117089;28;20158;-76
2021/04/10 08:29:18;;;;;;;50.05;29.05;;;9.80;99.90;;;;;;5113344;28;20201;-75
2021/04/10 08:31:45;;;;;;;44.35;28.50;;;9.70;99.90;;;;;;5111430;28;20173;-76
2021/04/10 08:34:12;;;;;;;47.08;28.27;;;9.50;99.90;;;;;;5104847;28;20177;-76
2021/04/10 08:36:40;;;;;;;39.67;27.42;;;9.30;99.90;;;;;;5110829;28;20210;-77
2021/04/10 08:39:11;;;;;;;46.65;28.23;;;9.30;99.90;;;;;;5096457;28;20166;-75
2021/04/10 08:41:40;;;;;;;45.88;28.67;;;9.10;99.90;;;;;;5095103;28;20629;-78
2021/04/10 08:44:07;;;;;;;43.65;27.65;;;9.10;99.90;;;;;;5108845;28;20272;-77
2021/04/10 08:46:36;;;;;;;50.38;28.60;;;9.10;99.90;;;;;;5109411;27;20192;-77
2021/04/10 08:49:02;;;;;;;44.38;27.88;;;9.10;99.90;;;;;;5114498;28;20581;-78
2021/04/10 08:51:33;;;;;;;44.30;28.08;;;9.10;99.90;;;;;;5110359;28;20264;-77
2021/04/10 08:54:01;;;;;;;40.10;29.05;;;9.20;99.90;;;;;;5110939;27;20638;-78
2021/04/10 08:56:30;;;;;;;48.58;28.23;;;9.50;99.90;;;;;;5103760;28;20296;-78
2021/04/10 08:59:12;;;;;;;45.83;27.92;;;9.80;99.90;;;;;;5100872;28;20174;-77
2021/04/10 09:01:41;;;;;;;42.90;26.80;;;9.80;99.90;;;;;;5110210;28;20192;-78
2021/04/10 09:04:07;;;;;;;42.38;26.35;;;9.50;99.90;;;;;;5110938;28;20181;-77
2021/04/10 09:06:33;;;;;;;46.50;28.42;;;9.30;99.90;;;;;;5102688;27;20183;-76
2021/04/10 09:09:11;;;;;;;38.97;28.02;;;9.40;99.90;;;;;;5099755;28;20177;-76
2021/04/10 09:11:37;;;;;;;36.95;27.73;;;9.60;99.90;;;;;;5094914;27;20202;-77
2021/04/10 09:14:03;;;;;;;44.50;27.58;;;9.40;99.90;;;;;;5095344;27;20208;-79
2021/04/10 09:16:33;;;;;;;43.35;29.08;;;9.40;99.90;;;;;;5104105;27;20228;-77
2021/04/10 09:19:10;;;;;;;44.92;29.58;;;9.70;99.90;;;;;;5102850;27;20172;-76
2021/04/10 09:21:36;;;;;;;43.28;27.50;;;9.70;99.90;;;;;;5110366;27;20178;-76
2021/04/10 09:24:20;;;;;;;39.17;27.65;;;9.60;99.90;;;;;;5114160;28;20222;-76
2021/04/10 09:26:57;;;;;;;35.35;26.15;;;9.60;99.90;;;;;;5106219;27;20182;-77
2021/04/10 09:29:24;;;;;;;41.50;27.52;;;9.30;99.90;;;;;;5097901;27;20268;-78
2021/04/10 09:31:57;;;;;;;40.55;28.38;;;9.10;99.90;;;;;;5095861;27;20685;-76
2021/04/10 09:34:51;;;;;;;37.45;25.95;;;9.10;99.90;;;;;;5114658;28;20638;-76
2021/04/10 09:37:19;;;;;;;38.85;27.63;;;9.10;99.90;;;;;;5093929;28;20210;-78
2021/04/10 09:40:03;;;;;;;37.55;27.23;;;9.10;99.90;;;;;;5095295;28;20201;-76
2021/04/10 09:42:34;;;;;;;40.30;28.27;;;9.20;99.90;;;;;;5094946;28;20553;-77
2021/04/10 09:45:23;;;;;;;38.60;26.60;;;9.20;99.90;;;;;;5100089;27;20178;-77
2021/04/10 09:50:43;;;;;;;46.30;27.83;;;9.30;99.90;;;;;;5098382;28;20198;-77
2021/04/10 09:53:28;;;;;;;43.65;28.35;;;9.50;99.90;;;;;;5114155;28;20165;-77
2021/04/10 09:56:04;;;;;;;39.13;27.70;;;9.70;99.90;;;;;;5105173;28;20174;-77
2021/04/10 09:58:50;;;;;;;38.08;27.60;;;9.90;99.90;;;;;;5094955;28;20168;-77
2021/04/10 10:01:28;;;;;;;39.03;27.35;;;10.30;99.90;;;;;;5094364;28;20683;-78
2021/04/10 10:03:54;;;;;;;37.35;25.48;;;10.40;99.90;;;;;;5095081;28;20257;-77
2021/04/10 10:06:25;;;;;;;36.22;26.20;;;10.40;99.90;;;;;;5094573;27;20281;-77
2021/04/10 10:08:51;;;;;;;34.65;26.67;;;10.40;99.90;;;;;;5108019;28;20177;-78
2021/04/10 10:11:17;;;;;;;36.22;25.75;;;10.50;99.90;;;;;;5114138;28;20246;-78
2021/04/10 10:13:44;;;;;;;33.40;25.38;;;10.20;99.90;;;;;;5112926;28;20218;-77
2021/04/10 10:16:10;;;;;;;34.83;25.27;;;9.90;99.90;;;;;;5112190;27;20620;-77
2021/04/10 10:18:38;;;;;;;37.88;25.73;;;9.80;99.90;;;;;;5129712;27;20247;-77
2021/04/10 10:21:12;;;;;;;39.35;26.42;;;10.00;99.90;;;;;;5094209;28;20289;-77
2021/04/10 10:23:40;;;;;;;39.25;26.75;;;9.90;99.90;;;;;;5094124;28;20181;-77
2021/04/10 10:26:15;;;;;;;33.47;25.67;;;10.10;99.90;;;;;;5094465;28;20257;-78
2021/04/10 10:28:42;;;;;;;36.35;28.13;;;10.30;99.90;;;;;;5112627;28;20188;-78
2021/04/10 10:31:15;;;;;;;33.42;26.08;;;10.40;99.90;;;;;;5114543;28;20206;-78
2021/04/10 10:33:41;;;;;;;36.40;28.30;;;10.20;99.90;;;;;;5103800;28;20272;-78
2021/04/10 10:36:08;;;;;;;36.78;26.67;;;10.20;99.90;;;;;;5113047;28;20209;-78
2021/04/10 10:38:39;;;;;;;34.78;26.95;;;10.20;99.90;;;;;;5108652;28;20521;-78
2021/04/10 10:41:07;;;;;;;35.92;26.88;;;10.50;99.90;;;;;;5103260;28;20264;-78
2021/04/10 10:43:33;;;;;;;37.67;25.17;;;10.90;99.90;;;;;;5094238;28;20224;-78
2021/04/10 10:46:07;;;;;;;37.92;24.45;;;11.20;99.90;;;;;;5105076;28;20212;-78
2021/04/10 10:48:38;;;;;;;29.40;23.67;;;11.50;99.90;;;;;;5114146;28;20224;-78
2021/04/10 10:51:11;;;;;;;30.40;23.15;;;11.60;99.90;;;;;;5103375;28;20166;-78
2021/04/10 10:53:42;;;;;;;37.97;23.95;;;11.60;99.90;;;;;;5106213;28;20286;-78
2021/04/10 10:56:12;;;;;;;30.35;23.50;;;11.60;99.90;;;;;;5100225;28;20210;-78
2021/04/10 10:58:58;;;;;;;31.27;24.13;;;11.50;99.90;;;;;;5094439;28;20633;-78
2021/04/10 11:01:25;;;;;;;30.58;23.33;;;11.50;99.90;;;;;;5134763;27;20504;-78
2021/04/10 11:03:58;;;;;;;27.80;23.50;;;11.30;99.90;;;;;;5114456;28;20262;-78
2021/04/10 11:06:40;;;;;;;34.20;24.40;;;11.40;99.90;;;;;;5109649;28;20506;-78
2021/04/10 11:09:09;;;;;;;28.50;23.55;;;11.60;99.90;;;;;;5098197;28;20203;-80
2021/04/10 11:11:44;;;;;;;27.48;22.02;;;12.00;99.90;;;;;;5092955;28;20630;-79
2021/04/10 11:14:10;;;;;;;24.17;21.63;;;11.60;99.90;;;;;;5093691;28;20178;-78
2021/04/10 11:16:47;;;;;;;23.48;20.05;;;11.70;99.90;;;;;;5093032;28;20276;-78
2021/04/10 11:19:31;;;;;;;28.10;20.45;;;11.70;99.90;;;;;;5093643;28;20166;-78
2021/04/10 11:21:58;;;;;;;25.13;21.67;;;11.60;99.90;;;;;;5098562;28;20200;-78
2021/04/10 11:24:38;;;;;;;22.17;19.35;;;11.60;99.90;;;;;;5095270;28;20591;-78
2021/04/10 11:27:13;;;;;;;22.13;19.52;;;11.60;99.90;;;;;;5094216;28;20182;-78
2021/04/10 11:29:47;;;;;;;21.08;18.88;;;11.70;99.90;;;;;;5094020;28;20168;-78
2021/04/10 11:32:19;;;;;;;19.38;17.30;;;11.60;99.90;;;;;;5111726;28;20199;-78
2021/04/10 11:34:52;;;;;;;20.85;17.70;;;11.40;99.90;;;;;;5092720;28;20598;-78
2021/04/10 11:37:36;;;;;;;20.20;16.75;;;11.30;99.90;;;;;;5101567;28;20550;-79
2021/04/10 11:40:07;;;;;;;17.83;15.48;;;11.40;99.90;;;;;;5109877;28;20282;-79
2021/04/10 11:42:55;;;;;;;22.05;14.27;;;11.30;99.90;;;;;;5095762;28;20170;-78
2021/04/10 11:45:27;;;;;;;14.80;13.38;;;11.10;99.90;;;;;;5104424;28;20174;-78
2021/04/10 11:48:08;;;;;;;15.05;13.55;;;11.10;99.90;;;;;;5107152;28;20242;-78
2021/04/10 11:50:50;;;;;;;14.50;13.18;;;11.60;99.90;;;;;;5099091;28;20542;-78
2021/04/10 11:53:22;;;;;;;14.57;13.18;;;12.30;99.90;;;;;;5114650;28;20252;-78
2021/04/10 11:55:49;;;;;;;15.90;14.27;;;12.60;99.90;;;;;;5113953;28;20524;-79
2021/04/10 11:58:27;;;;;;;13.88;12.57;;;12.70;99.90;;;;;;5109377;28;20181;-78
2021/04/10 12:01:12;;;;;;;13.80;12.48;;;12.50;99.90;;;;;;5112143;28;20169;-77
2021/04/10 12:04:01;;;;;;;13.63;12.15;;;12.10;99.90;;;;;;5096020;28;20256;-78
2021/04/10 12:06:33;;;;;;;13.98;12.77;;;11.70;99.90;;;;;;5099829;28;20231;-77
2021/04/10 12:09:07;;;;;;;11.77;10.77;;;11.50;99.90;;;;;;5113141;28;20262;-78
2021/04/10 12:11:34;;;;;;;11.00;10.10;;;11.60;99.90;;;;;;5112499;28;20644;-79
2021/04/10 12:14:11;;;;;;;12.20;11.00;;;11.50;99.90;;;;;;5113680;28;20238;-78
2021/04/10 12:16:42;;;;;;;11.43;10.43;;;11.50;99.90;;;;;;5094098;28;20206;-76
2021/04/10 12:19:09;;;;;;;11.50;10.45;;;11.80;99.90;;;;;;5100813;28;20173;-77
2021/04/10 12:21:35;;;;;;;11.10;10.02;;;12.10;99.90;;;;;;5117845;28;20162;-78
2021/04/10 12:24:01;;;;;;;11.07;10.27;;;12.40;99.90;;;;;;5117506;28;20192;-77
2021/04/10 12:26:27;;;;;;;11.27;10.38;;;12.40;99.90;;;;;;5127386;27;20211;-75
2021/04/10 12:28:53;;;;;;;11.63;10.55;;;12.40;99.90;;;;;;5098821;28;20174;-76
2021/04/10 12:31:19;;;;;;;11.63;10.52;;;12.30;99.90;;;;;;5099788;28;20299;-77
2021/04/10 12:33:44;;;;;;;11.25;10.35;;;12.20;99.90;;;;;;5092438;28;20300;-77
2021/04/10 12:36:12;;;;;;;10.85;9.80;;;12.20;99.90;;;;;;5105224;28;20198;-78
2021/04/10 12:38:37;;;;;;;11.25;10.35;;;12.00;99.90;;;;;;5113658;28;20252;-78
2021/04/10 12:41:04;;;;;;;10.95;10.02;;;11.70;99.90;;;;;;5116794;28;20204;-77
2021/04/10 12:43:30;;;;;;;11.40;10.40;;;11.30;99.90;;;;;;5115278;28;20177;-77
2021/04/10 12:45:56;;;;;;;11.50;10.50;;;11.10;99.90;;;;;;5139582;27;20170;-76
2021/04/10 12:48:22;;;;;;;11.90;10.85;;;11.10;99.90;;;;;;5119673;27;20502;-79